createdAt,value
2023-08-14T03:47:30.431Z,5.45
2023-08-14T03:50:33.873Z,5.03
2023-08-14T03:53:36.738Z,4.85
2023-08-14T03:56:40.360Z,6.03
2023-08-14T03:59:43.501Z,5.20
2023-08-14T04:02:47.154Z,5.03
2023-08-14T04:05:56.535Z,4.70
2023-08-14T04:09:02.460Z,4.47
2023-08-14T04:12:05.703Z,4.82
2023-08-14T04:15:16.271Z,5.03
2023-08-14T04:18:19.457Z,4.30
2023-08-14T04:21:21.982Z,4.97
2023-08-14T04:24:24.769Z,4.20
2023-08-14T04:27:27.248Z,4.30
2023-08-14T04:30:30.034Z,4.30
2023-08-14T04:33:32.622Z,4.65
2023-08-14T04:36:36.786Z,4.90
2023-08-14T04:39:39.665Z,4.70
2023-08-14T04:45:44.842Z,3.95
2023-08-14T04:48:47.544Z,4.45
2023-08-14T04:51:50.083Z,4.68
2023-08-14T04:54:53.943Z,4.30
2023-08-14T04:57:57.264Z,4.62
2023-08-14T05:04:03.260Z,5.47
2023-08-14T05:07:05.994Z,5.70
2023-08-14T05:10:08.545Z,4.68
2023-08-14T05:13:11.345Z,5.00
2023-08-14T05:19:17.983Z,4.62
2023-08-14T05:22:23.337Z,4.95
2023-08-14T05:25:26.229Z,5.53
2023-08-14T05:28:28.888Z,4.82
2023-08-14T05:31:32.284Z,4.43
2023-08-14T05:34:35.140Z,4.80
2023-08-14T05:37:37.830Z,6.18
2023-08-14T05:40:40.363Z,5.50
2023-08-14T05:43:43.214Z,4.45
2023-08-14T05:46:48.235Z,4.85
2023-08-14T05:49:52.439Z,5.10
2023-08-14T05:53:01.064Z,4.57
2023-08-14T05:56:07.357Z,4.47
2023-08-14T05:59:10.195Z,4.97
2023-08-14T06:02:13.085Z,5.03
2023-08-14T06:05:16.066Z,4.40
2023-08-14T06:08:18.721Z,5.15
2023-08-14T06:14:24.651Z,4.32
2023-08-14T06:17:31.051Z,4.43
2023-08-14T06:20:35.376Z,4.75
2023-08-14T06:23:38.593Z,6.05
2023-08-14T06:29:45.060Z,4.10
2023-08-14T06:32:47.708Z,5.32
2023-08-14T06:38:53.897Z,4.45
2023-08-14T06:41:57.308Z,4.43
2023-08-14T06:45:02.730Z,5.55
2023-08-14T06:48:06.597Z,4.22
2023-08-14T06:51:10.051Z,4.87
2023-08-14T06:54:13.732Z,4.12
2023-08-14T06:57:17.361Z,4.32
2023-08-14T07:00:20.108Z,4.30
2023-08-14T07:03:22.635Z,4.57
2023-08-14T07:06:25.591Z,4.80
2023-08-14T07:09:28.196Z,3.72
2023-08-14T07:15:34.006Z,3.80
2023-08-14T07:18:37.032Z,3.78
2023-08-14T07:24:45.256Z,4.05
2023-08-14T07:27:47.674Z,4.22
2023-08-14T07:33:53.095Z,4.47
2023-08-14T07:39:58.078Z,3.47
2023-08-14T07:46:03.149Z,3.65
2023-08-14T07:49:05.910Z,4.35
2023-08-14T07:52:10.565Z,3.78
2023-08-14T07:55:13.424Z,4.18
2023-08-14T07:58:19.605Z,3.37
2023-08-14T08:01:22.611Z,4.03
2023-08-14T08:04:26.854Z,3.30
2023-08-14T08:10:37.892Z,4.20
2023-08-14T08:13:44.162Z,3.90
2023-08-14T08:16:46.903Z,3.85
2023-08-14T08:19:49.552Z,3.47
2023-08-14T08:22:52.352Z,3.72
2023-08-14T08:25:54.894Z,3.40
2023-08-14T08:28:58.776Z,3.80
2023-08-14T08:32:01.180Z,3.55
2023-08-14T08:35:03.917Z,4.10
2023-08-14T08:41:09.797Z,2.90
2023-08-14T08:44:33.372Z,3.90
2023-08-14T08:47:39.970Z,3.67
2023-08-14T08:50:45.636Z,4.35
2023-08-14T08:53:49.261Z,3.62
2023-08-14T08:56:52.570Z,3.35
2023-08-14T08:59:58.686Z,3.75
2023-08-14T09:03:01.442Z,3.62
2023-08-14T09:06:04.438Z,3.58
2023-08-14T09:12:10.377Z,4.00
2023-08-14T09:21:19.051Z,2.65
2023-08-14T09:24:21.953Z,3.62
2023-08-14T09:27:27.348Z,3.25
2023-08-14T09:30:30.154Z,2.72
2023-08-14T09:36:35.814Z,2.80
2023-08-14T09:39:38.370Z,2.40
2023-08-14T09:42:43.070Z,3.28
2023-08-14T09:45:48.053Z,3.60
2023-08-14T09:48:50.832Z,2.75
2023-08-14T09:52:00.082Z,3.00
2023-08-14T09:55:10.685Z,3.17
2023-08-14T09:58:14.040Z,3.12
2023-08-14T10:01:19.042Z,3.25
2023-08-14T10:04:23.810Z,3.00
2023-08-14T10:07:27.372Z,2.85
2023-08-14T10:10:32.336Z,2.97
2023-08-14T10:13:44.083Z,3.70
2023-08-14T10:16:50.807Z,2.83
2023-08-14T10:19:54.686Z,3.03
2023-08-14T10:22:58.526Z,3.70
2023-08-14T10:26:01.394Z,3.03
2023-08-14T10:29:05.870Z,3.60
2023-08-14T10:32:08.826Z,3.15
2023-08-14T10:35:13.005Z,3.47
2023-08-14T10:38:18.237Z,2.83
2023-08-14T10:41:33.607Z,2.85
2023-08-14T10:44:37.013Z,3.08
2023-08-14T10:47:39.895Z,3.12
2023-08-14T10:50:42.323Z,3.15
2023-08-14T10:53:46.081Z,3.05
2023-08-14T10:56:52.921Z,3.90
2023-08-14T10:59:59.097Z,3.45
2023-08-14T11:03:09.406Z,3.20
